createdAt,value
2022-09-27T00:02:41.918Z,1.92
2022-09-27T00:07:45.013Z,2.00
2022-09-27T00:12:48.156Z,2.10
2022-09-27T00:17:51.912Z,2.00
2022-09-27T00:22:53.661Z,1.98
2022-09-27T00:27:55.412Z,1.90
2022-09-27T00:32:57.138Z,2.00
2022-09-27T00:37:58.869Z,1.88
2022-09-27T00:43:00.582Z,2.20
2022-09-27T00:48:06.193Z,1.90
2022-09-27T00:53:29.936Z,2.08
2022-09-27T00:58:37.376Z,2.20
2022-09-27T01:04:04.863Z,2.53
2022-09-27T01:09:11.481Z,2.35
2022-09-27T01:14:22.112Z,2.08
2022-09-27T01:20:18.254Z,2.28
2022-09-27T01:25:31.910Z,1.70
2022-09-27T01:30:48.828Z,2.00
2022-09-27T01:36:34.721Z,1.90
2022-09-27T01:41:42.074Z,2.00
2022-09-27T01:46:58.823Z,4.18
2022-09-27T01:52:33.346Z,2.65
2022-09-27T01:57:40.327Z,1.88
2022-09-27T02:02:53.156Z,2.10
2022-09-27T02:08:31.736Z,2.28
2022-09-27T02:14:00.574Z,1.88
2022-09-27T02:19:53.699Z,1.50
2022-09-27T02:25:11.299Z,1.77
2022-09-27T02:30:15.752Z,1.70
2022-09-27T02:35:33.947Z,1.88
2022-09-27T02:40:44.288Z,1.60
2022-09-27T02:46:14.483Z,1.50
2022-09-27T02:51:33.489Z,1.70
2022-09-27T02:56:56.017Z,1.67
2022-09-27T03:02:45.903Z,1.83
2022-09-27T03:08:08.557Z,1.75
2022-09-27T03:13:10.440Z,1.60
2022-09-27T03:18:12.319Z,1.60
2022-09-27T03:23:14.059Z,2.05
2022-09-27T03:28:16.785Z,1.90
2022-09-27T03:33:19.172Z,1.70
2022-09-27T03:38:28.293Z,2.00
2022-09-27T03:43:30.070Z,1.95
2022-09-27T03:48:36.220Z,1.88
2022-09-27T03:53:38.454Z,2.20
2022-09-27T03:58:40.371Z,2.10
2022-09-27T04:03:42.445Z,2.17
2022-09-27T04:09:03.241Z,2.30
2022-09-27T04:14:21.933Z,2.40
2022-09-27T04:19:43.621Z,2.20
2022-09-27T04:24:46.261Z,2.40
2022-09-27T04:30:04.593Z,2.10
2022-09-27T04:35:46.190Z,2.30
2022-09-27T04:40:49.068Z,2.33
2022-09-27T04:45:51.204Z,2.17
2022-09-27T04:51:02.288Z,2.17
2022-09-27T04:56:05.940Z,2.17
2022-09-27T05:01:09.296Z,2.45
2022-09-27T05:06:34.163Z,2.15
2022-09-27T05:11:42.197Z,2.35
2022-09-27T05:17:04.006Z,2.10
2022-09-27T05:22:22.441Z,1.73
2022-09-27T05:27:24.169Z,2.00
2022-09-27T05:32:26.488Z,2.40
2022-09-27T05:37:58.876Z,2.05
2022-09-27T05:43:03.061Z,2.60
2022-09-27T05:48:05.290Z,2.20
2022-09-27T05:53:13.169Z,1.90
2022-09-27T05:58:16.383Z,2.30
2022-09-27T06:03:22.044Z,2.15
2022-09-27T06:08:42.254Z,2.55
2022-09-27T06:13:47.809Z,2.60
2022-09-27T06:18:49.747Z,2.33
2022-09-27T06:23:54.284Z,2.13
2022-09-27T06:29:01.756Z,2.67
2022-09-27T06:34:03.782Z,2.67
2022-09-27T06:39:06.068Z,3.00
2022-09-27T06:49:46.756Z,2.40
2022-09-27T06:54:50.984Z,2.88
2022-09-27T07:00:11.456Z,2.85
2022-09-27T07:05:32.036Z,3.25
2022-09-27T07:10:43.825Z,3.85
2022-09-27T07:15:45.625Z,4.00
2022-09-27T07:20:50.875Z,4.32
2022-09-27T07:25:52.775Z,4.10
2022-09-27T07:30:56.296Z,3.88
2022-09-27T07:35:58.288Z,3.95
2022-09-27T07:41:10.734Z,3.97
2022-09-27T07:46:13.648Z,3.00
2022-09-27T07:51:24.129Z,4.07
2022-09-27T07:56:33.080Z,3.22
2022-09-27T08:01:35.419Z,3.33
2022-09-27T08:06:37.221Z,2.95
2022-09-27T08:11:39.500Z,2.92
2022-09-27T08:16:42.497Z,2.95
2022-09-27T08:22:09.839Z,2.95
2022-09-27T08:27:23.373Z,3.00
2022-09-27T08:32:31.207Z,3.03
2022-09-27T08:37:35.804Z,2.95
2022-09-27T08:43:02.633Z,2.65
2022-09-27T08:48:06.616Z,2.55
2022-09-27T08:53:14.631Z,2.35
2022-09-27T08:58:29.961Z,2.75
2022-09-27T09:03:40.246Z,2.53
2022-09-27T09:08:50.139Z,2.53
2022-09-27T09:14:09.170Z,2.70
2022-09-27T09:19:26.535Z,2.33
2022-09-27T09:25:28.716Z,2.78
2022-09-27T09:30:58.481Z,2.40
2022-09-27T09:36:06.768Z,2.80
2022-09-27T09:41:26.657Z,2.65
2022-09-27T09:46:45.490Z,2.47
2022-09-27T09:51:59.658Z,2.80
2022-09-27T09:57:13.914Z,2.40
2022-09-27T10:02:31.755Z,2.30
2022-09-27T10:07:39.862Z,2.60
2022-09-27T10:12:43.160Z,2.60
2022-09-27T10:17:51.592Z,2.90
2022-09-27T10:22:56.921Z,2.75
2022-09-27T10:28:34.799Z,2.60
2022-09-27T10:33:56.178Z,2.50
2022-09-27T10:39:02.493Z,2.97
2022-09-27T10:44:16.555Z,2.72
2022-09-27T10:49:35.546Z,2.92
2022-09-27T10:54:42.222Z,2.72
2022-09-27T10:59:48.483Z,2.58
2022-09-27T11:05:15.793Z,2.53
2022-09-27T11:15:31.587Z,2.50
2022-09-27T11:20:44.552Z,2.45
2022-09-27T11:26:08.936Z,2.78
2022-09-27T11:31:25.007Z,4.00
2022-09-27T11:36:48.717Z,3.92
2022-09-27T11:42:11.264Z,4.47
2022-09-27T11:47:46.535Z,4.30
2022-09-27T11:53:14.994Z,4.47
2022-09-27T11:58:27.827Z,2.50
2022-09-27T12:04:12.737Z,1.17
2022-09-27T12:09:20.117Z,1.75
2022-09-27T12:14:47.047Z,1.13
2022-09-27T12:19:53.745Z,1.73
2022-09-27T12:25:20.470Z,2.10
2022-09-27T12:30:38.499Z,2.42
2022-09-27T12:35:48.724Z,2.65
2022-09-27T12:40:54.792Z,3.35
2022-09-27T12:46:34.822Z,3.40
2022-09-27T12:51:42.679Z,4.07
2022-09-27T12:56:49.842Z,4.47
2022-09-27T13:02:35.538Z,4.13
2022-09-27T13:08:05.931Z,3.80
2022-09-27T13:13:14.240Z,2.42
2022-09-27T13:18:51.267Z,1.85
2022-09-27T13:23:53.230Z,2.00
2022-09-27T13:29:03.285Z,1.88
2022-09-27T13:34:40.847Z,1.85
2022-09-27T13:39:45.457Z,2.38
2022-09-27T13:45:28.133Z,2.60
2022-09-27T13:50:45.227Z,2.47
2022-09-27T13:55:53.563Z,3.53
2022-09-27T14:01:09.478Z,3.05
2022-09-27T14:06:18.647Z,2.78
2022-09-27T14:11:39.570Z,2.75
2022-09-27T14:16:47.482Z,2.67
2022-09-27T14:22:28.758Z,2.80
2022-09-27T14:27:38.106Z,2.60
2022-09-27T14:32:58.701Z,2.65
2022-09-27T14:38:38.989Z,2.40
2022-09-27T14:43:50.712Z,2.40
2022-09-27T14:48:53.216Z,2.00
2022-09-27T14:53:58.471Z,2.00
2022-09-27T14:59:13.307Z,1.50
2022-09-27T15:04:15.395Z,1.50
2022-09-27T15:09:18.739Z,2.20
2022-09-27T15:14:21.663Z,2.50
2022-09-27T15:19:26.970Z,2.22
2022-09-27T15:24:39.602Z,2.15
2022-09-27T15:29:41.628Z,2.63
2022-09-27T15:34:43.752Z,2.60
2022-09-27T15:39:45.746Z,3.10
2022-09-27T15:44:55.887Z,3.03
2022-09-27T15:50:16.481Z,3.15
2022-09-27T15:55:20.179Z,3.60
2022-09-27T16:00:22.023Z,4.03
2022-09-27T16:05:23.940Z,3.13
2022-09-27T16:10:43.246Z,2.33
2022-09-27T16:15:46.600Z,1.52
2022-09-27T16:20:48.434Z,1.50
2022-09-27T16:25:52.992Z,1.25
2022-09-27T16:30:54.792Z,1.20
2022-09-27T16:35:56.784Z,1.40
2022-09-27T16:41:03.165Z,1.50
2022-09-27T16:46:09.468Z,1.48
2022-09-27T16:51:35.699Z,1.70
2022-09-27T16:56:37.472Z,1.65
2022-09-27T17:01:39.432Z,1.80
2022-09-27T17:06:41.177Z,1.80
2022-09-27T17:11:42.878Z,1.90
2022-09-27T17:16:48.178Z,1.98
2022-09-27T17:21:54.085Z,2.20
2022-09-27T17:26:57.121Z,2.10
2022-09-27T17:32:00.502Z,2.00
2022-09-27T17:37:02.282Z,1.70
2022-09-27T17:42:04.146Z,1.40
2022-09-27T17:47:24.449Z,1.70
2022-09-27T17:52:26.816Z,2.25
2022-09-27T17:57:28.545Z,1.98
2022-09-27T18:02:30.332Z,2.40
2022-09-27T18:07:33.310Z,2.50
2022-09-27T18:12:35.306Z,2.60
2022-09-27T18:17:37.312Z,2.72
2022-09-27T18:22:39.104Z,2.95
2022-09-27T18:27:40.948Z,3.35
2022-09-27T18:32:42.748Z,3.38
2022-09-27T18:37:47.722Z,3.53
2022-09-27T18:42:50.354Z,3.30
2022-09-27T18:47:52.086Z,2.92
2022-09-27T18:52:53.829Z,3.13
2022-09-27T18:57:55.560Z,3.65
2022-09-27T19:02:57.839Z,3.40
2022-09-27T19:07:59.611Z,2.58
2022-09-27T19:13:01.370Z,2.97
2022-09-27T19:18:03.465Z,2.90
2022-09-27T19:23:05.187Z,3.50
2022-09-27T19:28:08.761Z,4.43
2022-09-27T19:33:10.887Z,3.30
2022-09-27T19:38:12.810Z,2.83
2022-09-27T19:43:14.510Z,2.35
2022-09-27T19:48:16.258Z,2.70
2022-09-27T19:53:17.954Z,2.97
2022-09-27T19:58:19.723Z,2.38
2022-09-27T20:03:21.413Z,2.17
2022-09-27T20:08:24.952Z,2.40
2022-09-27T20:13:28.579Z,2.03
2022-09-27T20:18:30.376Z,2.40
2022-09-27T20:23:33.837Z,1.80
2022-09-27T20:28:40.830Z,1.75
2022-09-27T20:33:45.902Z,2.08
2022-09-27T20:38:50.290Z,2.15
2022-09-27T20:43:56.893Z,2.25
2022-09-27T20:49:04.197Z,2.28
2022-09-27T20:54:08.478Z,2.80
2022-09-27T20:59:16.344Z,3.22
2022-09-27T21:04:19.814Z,2.90
2022-09-27T21:09:21.524Z,2.33
2022-09-27T21:14:23.266Z,2.92
2022-09-27T21:19:24.969Z,2.30
2022-09-27T21:24:26.801Z,2.55
2022-09-27T21:29:28.533Z,2.30
2022-09-27T21:34:30.281Z,2.50
2022-09-27T21:39:31.998Z,2.80
2022-09-27T21:44:33.732Z,2.05
2022-09-27T21:49:35.437Z,2.22
2022-09-27T21:54:37.122Z,2.60
2022-09-27T21:59:38.813Z,2.50
2022-09-27T22:04:40.533Z,2.20
2022-09-27T22:09:42.220Z,2.22
2022-09-27T22:14:43.980Z,1.80
2022-09-27T22:19:45.690Z,2.20
2022-09-27T22:24:47.409Z,2.28
2022-09-27T22:29:49.108Z,2.30
2022-09-27T22:34:50.845Z,2.30
2022-09-27T22:39:52.564Z,2.45
2022-09-27T22:44:54.331Z,2.45
2022-09-27T22:49:58.621Z,2.25
2022-09-27T22:55:00.352Z,2.35
2022-09-27T23:00:02.659Z,2.55
2022-09-27T23:05:04.677Z,2.83
2022-09-27T23:10:07.017Z,2.85
2022-09-27T23:15:09.243Z,3.22
2022-09-27T23:20:13.504Z,2.75
2022-09-27T23:25:15.407Z,2.70
2022-09-27T23:30:19.364Z,3.10
2022-09-27T23:35:21.745Z,2.90
2022-09-27T23:40:24.633Z,2.60
2022-09-27T23:45:27.652Z,2.50
2022-09-27T23:50:29.902Z,2.75
2022-09-27T23:55:31.587Z,3.00
